Flight Track Log - Related Links

Times and Time Zones

All times are in EDT time to prevent confusion due to time zone crossing. See the SWA3497 flight status page for this flight to view local times or setup timezone preferences in your user account.

Time Position Orientation Groundspeed Altitude Reporting Facility
EDT Latitude Longitude Course Direction KTS MPH feet Rate Location/Type
Wed 04:28:14 PM 39.1500 -76.6500 142° Southeast 160 184 1,700  Level Potomac TRACON
Wed 04:29:14 PM 39.1000 -76.6000 142° Southeast 217 250 4,100 2,907 Climbing Potomac TRACON
Wed 04:30:55 PM 39.0831 -76.4661 99° East 220 253 9,500 2,646 Climbing Washington Center
Wed 04:31:55 PM 39.1153 -76.3567 69° East 265 305 11,200 2,200 Climbing Washington Center
Wed 04:32:55 PM 39.1472 -76.2286 72° East 307 353 13,900 2,600 Climbing Washington Center
Wed 04:33:55 PM 39.1686 -76.1003 78° East 368 423 16,400 2,900 Climbing Washington Center
Wed 04:34:55 PM 39.1839 -75.9531 82° East 395 455 19,700 2,950 Climbing Washington Center
Wed 04:35:55 PM 39.2383 -75.8275 61° Northeast 401 461 22,300 2,450 Climbing Washington Center
Wed 04:36:55 PM 39.3217 -75.7150 46° Northeast 413 475 24,600 2,350 Climbing Washington Center
Wed 04:37:55 PM 39.4094 -75.6022 45° Northeast 425 489 27,000 2,150 Climbing Washington Center
Wed 04:38:55 PM 39.4969 -75.4894 45° Northeast 430 495 28,900 1,000 Climbing Washington Center
Wed 04:39:55 PM 39.5822 -75.3761 46° Northeast 430 495 29,000 50 Climbing Washington Center
Wed 04:40:55 PM 39.6653 -75.2653 46° Northeast 430 495 29,000  Level Washington Center
Wed 04:41:55 PM 39.7544 -75.1408 47° Northeast 430 495 29,000  Level Washington Center
Wed 04:42:55 PM 39.8372 -75.0186 49° Northeast 436 502 29,000  Level Washington Center
Wed 04:43:55 PM 39.9178 -74.9044 47° Northeast 436 502 29,000  Level Washington Center
Wed 04:44:15 PM 39.9381 -74.8753 48° Northeast 437 503 29,000  Level New York Center
Wed 04:45:16 PM 40.0256 -74.7503 48° Northeast 437 503 29,000  Level New York Center
Wed 04:46:17 PM 40.0978 -74.6458 48° Northeast 437 503 29,000  Level New York Center
Wed 04:47:15 PM 40.1853 -74.5203 48° Northeast 432 497 29,000  Level New York Center
Wed 04:48:17 PM 40.2717 -74.4217 41° Northeast 432 497 29,000  Level New York Center
Wed 04:49:14 PM 40.3644 -74.3231 39° Northeast 427 491 29,000  Level New York Center
Wed 04:50:16 PM 40.4592 -74.2217 39° Northeast 427 491 29,000 -49 Level New York Center
Wed 04:51:17 PM 40.5517 -74.1225 39° Northeast 427 491 28,900 -1,059 Descending New York Center
Wed 04:52:15 PM 40.6397 -74.0256 40° Northeast 427 491 26,900 -1,367 Descending New York Center
Wed 04:54:52 PM 40.8650 -73.7767 40° Northeast 393 452 24,000 -857 Descending Boston Center
Wed 04:55:52 PM 40.9433 -73.6711 45° Northeast 388 447 23,800 -500 Descending Boston Center
Wed 04:56:52 PM 41.0297 -73.5764 40° Northeast 393 452 23,000 -400 Descending Boston Center
Wed 04:57:52 PM 41.1097 -73.4786 43° Northeast 393 452 23,000 -318 Level Boston Center
Wed 04:59:04 PM 41.2125 -73.4197 23° Northeast 385 443 22,300 -864 Descending Boston Center
Wed 05:00:04 PM 41.3397 -73.4078 North 378 435 21,100 -1,100 Descending Boston Center
Wed 05:01:04 PM 41.4436 -73.4231 354° North 372 428 20,100 -900 Descending Boston Center
Wed 05:02:04 PM 41.5581 -73.4444 352° North 367 422 19,300 -900 Descending Boston Center
Wed 05:03:04 PM 41.6433 -73.4569 354° North 353 406 18,300 -1,100 Descending Boston Center
Wed 05:04:04 PM 41.7497 -73.4697 355° North 353 406 17,100 -1,300 Descending Boston Center
Wed 05:05:04 PM 41.8369 -73.4850 353° North 353 406 15,700 -1,579 Descending Boston Center
Wed 05:05:39 PM 41.8994 -73.4944 354° North 342 394 14,600 -1,729 Descending Boston Center
Wed 05:06:03 PM 41.9350 -73.4978 356° North 336 387 14,000 -1,553 Descending Boston Center
Wed 05:07:04 PM 42.0306 -73.5161 352° North 318 366 12,400 -1,438 Descending Boston Center
Wed 05:08:04 PM 42.1158 -73.5289 354° North 308 354 11,100 -700 Descending Boston Center
Wed 05:09:04 PM 42.1969 -73.5469 351° North 311 358 11,000 -295 Descending Boston Center
Wed 05:10:06 PM 42.2803 -73.5625 352° North 301 346 10,500 -885 Descending Boston Center
Wed 05:11:06 PM 42.3614 -73.5808 351° North 291 335 9,200 -1,339 Descending Boston Center
Wed 05:12:07 PM 42.4403 -73.5964 352° North 285 328 7,800 -1,328 Descending Boston Center
Wed 05:13:08 PM 42.5172 -73.6092 353° North 280 322 6,500 -1,339 Descending Boston Center
Wed 05:14:08 PM 42.5964 -73.6303 349° North 272 313 5,100 -1,041 Descending Boston Center
Wed 05:15:09 PM 42.6711 -73.6458 351° North 267 307 4,400 -885 Descending Boston Center
Wed 05:16:10 PM 42.7461 -73.6672 348° North 270 311 3,300 -639 Descending Boston Center
Wed 05:17:11 PM 42.8125 -73.6853 349° North 244 281 3,100 -198 Descending Boston Center
Wed 05:18:11 PM 42.8642 -73.7206 333° Northwest 200 230 2,900 -496 Descending Boston Center
Wed 05:19:12 PM 42.8489 -73.7853 252° West 155 178 2,100 -689 Descending Boston Center
Wed 05:20:13 PM 42.8214 -73.8131 217° Southwest 132 152 1,500 -590 Descending Boston Center

Login

Don't have an account? Register now (free) for customized features, flight alerts, and more!